Time;durP1;ratioP1;P1;durP2;ratioP2;P2;SDS_P1;SDS_P2;PMS_P1;PMS_P2;Temp;Humidity;BMP_temperature;BMP_pressure;BME280_temperature;BME280_humidity;BME280_pressure;Samples;Min_cycle;Max_cycle;Signal;HPM_P1;HPM_P2
2022/10/06 00:00:43;;;;;;;16.25;3.05;;;;;;;;;;4980366;28;92439;-71
2022/10/06 00:03:09;;;;;;;18.20;2.35;;;;;;;;;;4975574;28;96774;-71
2022/10/06 00:05:35;;;;;;;11.55;2.40;;;;;;;;;;4982883;28;92602;-71
2022/10/06 00:08:02;;;;;;;12.90;2.78;;;;;;;;;;4996570;28;94311;-71
2022/10/06 00:10:28;;;;;;;15.43;2.92;;;;;;;;;;4985479;28;93517;-71
2022/10/06 00:12:55;;;;;;;11.98;3.22;;;;;;;;;;4987572;28;92561;-71
2022/10/06 00:15:23;;;;;;;12.10;2.50;;;;;;;;;;4977312;28;92432;-71
2022/10/06 00:17:49;;;;;;;10.60;2.17;;;;;;;;;;4981821;28;95096;-71
2022/10/06 00:20:16;;;;;;;9.43;2.35;;;;;;;;;;4979458;28;91784;-71
2022/10/06 00:22:44;;;;;;;13.07;2.58;;;;;;;;;;4981372;28;93542;-71
2022/10/06 00:25:12;;;;;;;15.77;3.35;;;;;;;;;;4976570;28;92744;-71
2022/10/06 00:27:39;;;;;;;24.27;2.65;;;;;;;;;;4973981;28;94850;-71
2022/10/06 00:30:07;;;;;;;21.17;2.80;;;;;;;;;;4977793;28;93440;-71
2022/10/06 00:32:33;;;;;;;13.25;2.75;;;;;;;;;;4980936;28;92480;-71
2022/10/06 00:35:00;;;;;;;21.33;2.78;;;;;;;;;;4967929;28;93216;-72
2022/10/06 00:37:27;;;;;;;21.08;2.72;;;;;;;;;;4972041;28;94445;-71
2022/10/06 00:39:53;;;;;;;18.85;2.20;;;;;;;;;;4981359;28;92364;-72
2022/10/06 00:42:29;;;;;;;15.93;2.85;;;;;;;;;;4978553;28;93100;-71
2022/10/06 00:44:57;;;;;;;17.40;2.75;;;;;;;;;;4980277;28;92224;-71
2022/10/06 00:47:23;;;;;;;13.98;2.50;;;;;;;;;;4967744;28;93803;-71
2022/10/06 00:49:52;;;;;;;16.45;3.25;;;;;;;;;;4973791;28;94528;-71
2022/10/06 00:52:20;;;;;;;16.27;2.40;;;;;;;;;;4988062;28;94995;-71
2022/10/06 00:54:47;;;;;;;24.38;2.45;;;;;;;;;;4975975;28;96976;-71
2022/10/06 00:57:13;;;;;;;15.90;3.53;;;;;;;;;;4977679;28;93365;-72
2022/10/06 00:59:39;;;;;;;14.50;3.25;;;;;;;;;;4985805;28;92967;-71
2022/10/06 01:02:11;;;;;;;14.75;2.08;;;;;;;;;;4979048;28;94634;-71
2022/10/06 01:04:40;;;;;;;18.80;3.38;;;;;;;;;;4978618;28;93867;-71
2022/10/06 01:07:06;;;;;;;24.55;2.50;;;;;;;;;;4978454;28;93821;-71
2022/10/06 01:09:33;;;;;;;16.33;2.70;;;;;;;;;;4979171;28;93072;-72
2022/10/06 01:12:01;;;;;;;16.67;3.20;;;;;;;;;;4993451;28;92425;-71
2022/10/06 01:14:27;;;;;;;20.15;3.15;;;;;;;;;;4981734;28;93184;-70
2022/10/06 01:17:00;;;;;;;14.93;2.95;;;;;;;;;;4970100;28;95836;-72
2022/10/06 01:19:38;;;;;;;20.33;2.47;;;;;;;;;;4975264;28;93234;-72
2022/10/06 01:22:07;;;;;;;19.45;3.35;;;;;;;;;;4975544;28;93182;-71
2022/10/06 01:24:33;;;;;;;20.02;3.10;;;;;;;;;;4982956;28;93420;-72
2022/10/06 01:27:00;;;;;;;12.73;2.00;;;;;;;;;;4978181;28;92509;-71
2022/10/06 01:29:26;;;;;;;17.38;2.90;;;;;;;;;;4983169;28;94786;-72
2022/10/06 01:31:52;;;;;;;15.48;2.58;;;;;;;;;;4981410;28;92572;-71
2022/10/06 01:34:19;;;;;;;14.77;2.65;;;;;;;;;;4974288;28;93180;-71
2022/10/06 01:36:45;;;;;;;16.73;2.90;;;;;;;;;;4974135;28;93356;-71
2022/10/06 01:39:11;;;;;;;18.42;3.38;;;;;;;;;;4979617;28;93657;-71
2022/10/06 01:41:37;;;;;;;12.38;2.75;;;;;;;;;;4977866;28;94780;-71
2022/10/06 01:44:04;;;;;;;13.75;2.92;;;;;;;;;;4976665;28;93280;-72
2022/10/06 01:46:30;;;;;;;13.82;2.45;;;;;;;;;;4975945;28;92434;-71
2022/10/06 01:48:56;;;;;;;19.50;3.55;;;;;;;;;;4976510;28;93284;-72
2022/10/06 01:51:23;;;;;;;17.40;3.10;;;;;;;;;;4975799;28;92744;-71
2022/10/06 01:53:49;;;;;;;20.17;2.55;;;;;;;;;;4973553;28;93174;-71
2022/10/06 01:56:15;;;;;;;13.98;2.78;;;;;;;;;;4973338;28;93428;-70
2022/10/06 01:58:42;;;;;;;17.52;2.67;;;;;;;;;;4990795;28;91702;-71
2022/10/06 02:01:08;;;;;;;15.25;3.22;;;;;;;;;;4989781;28;93500;-71
2022/10/06 02:03:36;;;;;;;9.35;2.35;;;;;;;;;;4984396;28;92472;-72
2022/10/06 02:06:02;;;;;;;13.35;2.65;;;;;;;;;;4978463;28;96252;-72
2022/10/06 02:08:29;;;;;;;20.77;3.28;;;;;;;;;;4976408;28;95707;-72
2022/10/06 02:10:56;;;;;;;12.38;3.05;;;;;;;;;;4963894;28;92634;-72
2022/10/06 02:13:23;;;;;;;17.30;2.72;;;;;;;;;;4975654;28;94305;-72
2022/10/06 02:15:50;;;;;;;17.90;2.75;;;;;;;;;;4986268;28;92734;-72
2022/10/06 02:18:17;;;;;;;17.00;3.30;;;;;;;;;;4967812;28;92506;-72
2022/10/06 02:20:43;;;;;;;16.77;3.08;;;;;;;;;;4979684;28;93781;-72
2022/10/06 02:23:09;;;;;;;15.25;2.67;;;;;;;;;;4986713;28;92691;-72
2022/10/06 02:25:35;;;;;;;15.05;2.65;;;;;;;;;;4978579;28;93942;-72
2022/10/06 02:28:02;;;;;;;19.40;2.88;;;;;;;;;;4976327;28;94284;-72
2022/10/06 02:30:28;;;;;;;17.67;3.65;;;;;;;;;;4980528;28;96434;-72
2022/10/06 02:32:54;;;;;;;12.52;2.50;;;;;;;;;;4985446;28;95532;-71
2022/10/06 02:35:21;;;;;;;18.20;2.70;;;;;;;;;;4972591;28;94511;-71
2022/10/06 02:37:48;;;;;;;14.60;2.72;;;;;;;;;;4977969;28;93059;-72
2022/10/06 02:40:15;;;;;;;14.57;2.45;;;;;;;;;;4973721;28;92438;-72
2022/10/06 02:42:41;;;;;;;15.90;2.42;;;;;;;;;;4974297;28;93489;-72
2022/10/06 02:45:08;;;;;;;18.75;2.20;;;;;;;;;;4987154;28;92798;-72
2022/10/06 02:47:34;;;;;;;15.30;3.10;;;;;;;;;;4978471;28;93318;-72
2022/10/06 02:50:02;;;;;;;13.10;2.38;;;;;;;;;;4972692;28;93472;-72
2022/10/06 02:52:30;;;;;;;15.10;2.88;;;;;;;;;;4979373;28;92436;-72
2022/10/06 02:54:56;;;;;;;14.93;2.10;;;;;;;;;;4978420;28;95822;-72
2022/10/06 02:57:23;;;;;;;18.20;2.70;;;;;;;;;;4972421;28;93013;-72
2022/10/06 02:59:49;;;;;;;15.10;2.60;;;;;;;;;;4980654;28;92916;-72
2022/10/06 03:02:15;;;;;;;17.23;3.55;;;;;;;;;;4991868;28;93431;-72
2022/10/06 03:04:42;;;;;;;17.35;2.55;;;;;;;;;;4978400;28;94122;-71
2022/10/06 03:07:08;;;;;;;13.73;2.88;;;;;;;;;;4972270;28;93169;-72
2022/10/06 03:09:34;;;;;;;16.70;3.30;;;;;;;;;;4987914;28;93751;-72
2022/10/06 03:12:00;;;;;;;14.55;3.05;;;;;;;;;;4974428;28;92339;-72
2022/10/06 03:14:27;;;;;;;15.05;2.83;;;;;;;;;;4981478;28;92780;-72
2022/10/06 03:16:55;;;;;;;14.07;2.67;;;;;;;;;;4974196;28;93641;-71
2022/10/06 03:19:22;;;;;;;14.43;2.70;;;;;;;;;;4982809;28;94820;-72
2022/10/06 03:21:48;;;;;;;16.30;3.40;;;;;;;;;;4988870;28;93463;-72
2022/10/06 03:24:14;;;;;;;5.80;2.05;;;;;;;;;;4980010;28;92544;-73
2022/10/06 03:26:43;;;;;;;17.23;2.67;;;;;;;;;;4983098;28;92416;-73
2022/10/06 03:29:10;;;;;;;12.90;2.50;;;;;;;;;;4983784;28;93207;-72
2022/10/06 03:31:37;;;;;;;9.95;2.38;;;;;;;;;;4974837;28;92470;-71
2022/10/06 03:34:04;;;;;;;14.00;2.63;;;;;;;;;;4974296;28;93234;-72
2022/10/06 03:36:32;;;;;;;11.98;2.80;;;;;;;;;;4974994;28;93063;-72
2022/10/06 03:38:58;;;;;;;18.15;3.28;;;;;;;;;;4974585;28;93594;-72
2022/10/06 03:41:29;;;;;;;16.85;2.92;;;;;;;;;;4977078;28;94213;-73
2022/10/06 03:43:56;;;;;;;17.20;3.08;;;;;;;;;;4981228;28;95079;-72
2022/10/06 03:46:23;;;;;;;21.27;3.03;;;;;;;;;;4965199;28;96033;-72
2022/10/06 03:48:51;;;;;;;14.10;2.13;;;;;;;;;;4966502;28;93544;-72
2022/10/06 03:51:26;;;;;;;12.57;2.38;;;;;;;;;;4982762;28;92634;-72
2022/10/06 03:53:52;;;;;;;17.83;2.88;;;;;;;;;;4974831;28;93198;-72
2022/10/06 03:56:23;;;;;;;16.80;3.72;;;;;;;;;;4983467;28;94403;-72
2022/10/06 03:58:50;;;;;;;10.27;2.13;;;;;;;;;;4996518;28;92691;-72
2022/10/06 04:01:21;;;;;;;20.05;3.08;;;;;;;;;;4979434;28;93755;-72
2022/10/06 04:03:55;;;;;;;16.70;3.00;;;;;;;;;;4985010;28;93074;-72
2022/10/06 04:06:22;;;;;;;21.70;3.17;;;;;;;;;;4984014;28;93098;-72
2022/10/06 04:08:49;;;;;;;19.70;2.78;;;;;;;;;;4974773;28;95794;-72
2022/10/06 04:11:19;;;;;;;16.90;2.63;;;;;;;;;;4983512;28;92651;-72
2022/10/06 04:13:45;;;;;;;12.57;2.40;;;;;;;;;;4975948;28;94201;-72
2022/10/06 04:16:11;;;;;;;10.82;2.83;;;;;;;;;;4976627;28;93406;-72
2022/10/06 04:18:38;;;;;;;16.38;3.40;;;;;;;;;;4985543;28;92479;-72
2022/10/06 04:21:04;;;;;;;18.33;3.67;;;;;;;;;;4991988;28;94964;-72
2022/10/06 04:23:31;;;;;;;21.70;2.95;;;;;;;;;;4970807;28;92428;-72
2022/10/06 04:25:58;;;;;;;16.52;2.90;;;;;;;;;;4977495;28;94227;-72
2022/10/06 04:28:24;;;;;;;16.55;3.00;;;;;;;;;;4980169;28;93394;-72
2022/10/06 04:30:55;;;;;;;17.90;3.13;;;;;;;;;;4988396;28;92781;-72
2022/10/06 04:33:21;;;;;;;17.08;2.92;;;;;;;;;;4972836;28;94899;-72
2022/10/06 04:35:55;;;;;;;18.08;3.50;;;;;;;;;;4981557;28;94506;-72
2022/10/06 04:38:21;;;;;;;13.60;2.47;;;;;;;;;;4994803;28;92730;-72
2022/10/06 04:40:47;;;;;;;8.27;2.13;;;;;;;;;;4992577;28;92911;-72
2022/10/06 04:43:13;;;;;;;15.10;2.65;;;;;;;;;;4974204;28;92602;-71
2022/10/06 04:45:40;;;;;;;13.65;2.97;;;;;;;;;;4976557;28;93199;-72
2022/10/06 04:48:06;;;;;;;24.13;3.90;;;;;;;;;;4975540;28;93286;-72
2022/10/06 04:50:35;;;;;;;14.30;2.80;;;;;;;;;;4975274;28;91832;-72
2022/10/06 04:53:01;;;;;;;17.10;2.95;;;;;;;;;;4980880;28;92562;-72
2022/10/06 04:55:28;;;;;;;22.77;3.15;;;;;;;;;;4973511;28;93538;-72
2022/10/06 04:57:54;;;;;;;18.90;3.00;;;;;;;;;;4987093;28;95032;-72
2022/10/06 05:00:24;;;;;;;20.17;3.45;;;;;;;;;;4990025;28;96622;-73
2022/10/06 05:02:54;;;;;;;12.87;2.57;;;;;;;;;;4988105;28;94489;-72
2022/10/06 05:05:20;;;;;;;18.05;3.40;;;;;;;;;;4974161;28;94474;-72
2022/10/06 05:07:47;;;;;;;14.95;2.88;;;;;;;;;;4963694;28;94472;-72
2022/10/06 05:10:13;;;;;;;16.70;2.55;;;;;;;;;;4962108;28;92532;-72
2022/10/06 05:12:39;;;;;;;23.08;2.72;;;;;;;;;;4968191;28;92570;-72
2022/10/06 05:15:08;;;;;;;18.38;2.85;;;;;;;;;;4971648;28;92552;-72
2022/10/06 05:17:34;;;;;;;12.93;3.22;;;;;;;;;;4976573;28;92518;-73
2022/10/06 05:20:00;;;;;;;14.60;3.08;;;;;;;;;;4975019;28;94314;-72
2022/10/06 05:22:27;;;;;;;22.85;2.70;;;;;;;;;;4972696;28;96177;-72
2022/10/06 05:24:53;;;;;;;18.08;2.72;;;;;;;;;;4977797;28;92525;-72
2022/10/06 05:27:19;;;;;;;16.33;3.50;;;;;;;;;;4975594;28;93494;-72
2022/10/06 05:29:46;;;;;;;19.13;3.53;;;;;;;;;;4975739;28;92752;-72
2022/10/06 05:32:12;;;;;;;18.17;3.97;;;;;;;;;;4973717;28;93184;-72
2022/10/06 05:34:38;;;;;;;19.75;3.17;;;;;;;;;;4974956;28;94433;-72
2022/10/06 05:37:05;;;;;;;17.13;3.00;;;;;;;;;;4980233;28;92552;-72
2022/10/06 05:39:31;;;;;;;15.48;2.95;;;;;;;;;;4977038;28;93151;-73
2022/10/06 05:41:58;;;;;;;34.20;3.80;;;;;;;;;;4986096;28;92389;-72
2022/10/06 05:44:24;;;;;;;16.13;3.60;;;;;;;;;;4978043;28;92425;-72
2022/10/06 05:46:50;;;;;;;25.70;3.67;;;;;;;;;;4976038;28;94861;-72
2022/10/06 05:49:16;;;;;;;19.35;2.97;;;;;;;;;;4979927;28;92523;-73
2022/10/06 05:51:43;;;;;;;15.98;2.50;;;;;;;;;;4975470;28;93647;-72
2022/10/06 05:54:09;;;;;;;19.23;4.25;;;;;;;;;;4974024;28;93704;-72
2022/10/06 05:56:36;;;;;;;16.90;3.70;;;;;;;;;;4976693;28;92853;-72
2022/10/06 05:59:03;;;;;;;16.67;2.42;;;;;;;;;;4981413;28;93283;-72
2022/10/06 06:01:30;;;;;;;16.27;2.85;;;;;;;;;;4974066;28;92635;-72
2022/10/06 06:04:01;;;;;;;16.65;2.95;;;;;;;;;;4967009;28;91708;-72
2022/10/06 06:06:29;;;;;;;29.02;3.42;;;;;;;;;;4974077;28;92514;-73
2022/10/06 06:08:57;;;;;;;17.40;3.25;;;;;;;;;;4977619;28;93377;-76
2022/10/06 06:11:26;;;;;;;18.80;2.97;;;;;;;;;;4974085;28;94752;-74
2022/10/06 06:13:56;;;;;;;11.27;2.93;;;;;;;;;;4974390;28;93641;-73
2022/10/06 06:16:23;;;;;;;14.45;2.85;;;;;;;;;;4975268;28;92441;-72
2022/10/06 06:18:50;;;;;;;11.10;2.30;;;;;;;;;;4974695;28;92772;-72
2022/10/06 06:21:16;;;;;;;17.60;2.70;;;;;;;;;;4972762;28;93427;-73
2022/10/06 06:23:45;;;;;;;15.10;2.92;;;;;;;;;;4975624;28;92646;-74
2022/10/06 06:26:24;;;;;;;22.98;3.40;;;;;;;;;;4986575;28;93146;-73
2022/10/06 06:28:52;;;;;;;20.88;2.97;;;;;;;;;;4977672;28;94108;-71
2022/10/06 06:31:25;;;;;;;19.50;3.42;;;;;;;;;;4974637;28;92657;-73
2022/10/06 06:33:53;;;;;;;27.55;3.15;;;;;;;;;;4971456;28;93475;-74
2022/10/06 06:36:21;;;;;;;20.88;3.20;;;;;;;;;;4959652;28;95076;-74
2022/10/06 06:38:50;;;;;;;25.83;4.05;;;;;;;;;;4974970;28;96699;-73
2022/10/06 06:41:21;;;;;;;17.90;3.78;;;;;;;;;;4974066;28;93355;-73
2022/10/06 06:43:48;;;;;;;16.75;3.35;;;;;;;;;;4973942;28;93275;-74
2022/10/06 06:46:16;;;;;;;24.48;3.15;;;;;;;;;;4974102;28;93238;-72
2022/10/06 06:48:46;;;;;;;19.88;3.42;;;;;;;;;;4965839;28;95632;-73
2022/10/06 06:51:12;;;;;;;25.45;3.35;;;;;;;;;;4977334;28;92850;-73
2022/10/06 06:53:39;;;;;;;15.75;3.10;;;;;;;;;;4972532;28;92732;-74
2022/10/06 06:56:07;;;;;;;18.17;2.97;;;;;;;;;;4971054;28;92496;-74
2022/10/06 06:58:33;;;;;;;15.13;3.13;;;;;;;;;;4990340;28;93177;-75
2022/10/06 07:01:07;;;;;;;22.73;3.20;;;;;;;;;;4967182;28;96844;-75
2022/10/06 07:03:34;;;;;;;25.27;4.45;;;;;;;;;;4973489;28;92457;-74
2022/10/06 07:06:20;;;;;;;19.10;3.03;;;;;;;;;;4971245;28;92983;-72
2022/10/06 07:08:52;;;;;;;16.25;3.17;;;;;;;;;;4967525;28;94786;-76
2022/10/06 07:11:19;;;;;;;15.88;3.13;;;;;;;;;;4970233;28;94009;-73
2022/10/06 07:13:49;;;;;;;23.75;3.33;;;;;;;;;;4974469;28;93147;-74
2022/10/06 07:25:10;;;;;;;28.45;3.92;;;;;;;;;;4974916;28;92473;-74
2022/10/06 07:27:42;;;;;;;25.10;3.53;;;;;;;;;;4973540;28;95788;-74
2022/10/06 07:30:10;;;;;;;23.70;3.40;;;;;;;;;;4974971;28;93347;-74
2022/10/06 07:32:36;;;;;;;17.00;3.35;;;;;;;;;;4975429;28;92462;-74
2022/10/06 07:35:06;;;;;;;18.10;3.17;;;;;;;;;;4975157;28;94284;-74
2022/10/06 07:37:34;;;;;;;21.00;3.22;;;;;;;;;;4977847;28;94083;-74
2022/10/06 07:40:00;;;;;;;22.73;3.45;;;;;;;;;;4974731;28;93162;-74
2022/10/06 07:42:27;;;;;;;19.83;3.97;;;;;;;;;;4974450;28;93030;-74
2022/10/06 07:47:38;;;;;;;17.98;2.92;;;;;;;;;;4955494;28;93802;-74
2022/10/06 07:50:05;;;;;;;16.33;2.95;;;;;;;;;;4955356;28;93421;-74
2022/10/06 07:52:32;;;;;;;22.70;3.50;;;;;;;;;;4953966;28;94812;-74
2022/10/06 07:54:58;;;;;;;19.38;3.65;;;;;;;;;;4955529;28;94686;-74
2022/10/06 07:57:33;;;;;;;24.40;4.40;;;;;;;;;;4954781;28;93522;-74
2022/10/06 08:00:03;;;;;;;24.48;3.58;;;;;;;;;;4957924;28;92444;-74
2022/10/06 08:02:29;;;;;;;21.90;3.30;;;;;;;;;;4954778;28;93353;-74
2022/10/06 08:05:01;;;;;;;23.60;3.70;;;;;;;;;;4955203;28;92424;-74
2022/10/06 08:07:27;;;;;;;17.80;3.03;;;;;;;;;;4954932;28;93626;-74
2022/10/06 08:09:53;;;;;;;21.52;3.15;;;;;;;;;;4955294;28;93649;-74
2022/10/06 08:12:31;;;;;;;27.95;3.58;;;;;;;;;;4954580;28;92499;-74
2022/10/06 08:15:00;;;;;;;27.02;4.07;;;;;;;;;;4958414;28;92346;-73
2022/10/06 08:17:34;;;;;;;25.27;3.40;;;;;;;;;;4972889;28;96816;-74
2022/10/06 08:20:00;;;;;;;14.85;2.83;;;;;;;;;;4974235;28;92598;-74
2022/10/06 08:22:28;;;;;;;19.15;3.22;;;;;;;;;;4977227;28;93170;-74
2022/10/06 08:24:56;;;;;;;24.95;3.90;;;;;;;;;;4974209;28;92462;-73
2022/10/06 08:27:33;;;;;;;14.38;2.80;;;;;;;;;;4977089;28;93330;-74
2022/10/06 08:30:00;;;;;;;30.20;4.03;;;;;;;;;;4977316;28;93439;-74
2022/10/06 08:32:26;;;;;;;21.23;3.38;;;;;;;;;;4977311;28;92400;-74
2022/10/06 08:34:53;;;;;;;22.38;2.97;;;;;;;;;;4977829;28;93452;-74
2022/10/06 08:37:22;;;;;;;18.08;2.67;;;;;;;;;;4977104;28;93525;-74
2022/10/06 08:39:52;;;;;;;16.58;3.45;;;;;;;;;;4976982;28;92512;-74
2022/10/06 08:42:27;;;;;;;20.05;3.17;;;;;;;;;;4978690;28;94839;-74
2022/10/06 08:45:01;;;;;;;20.15;3.60;;;;;;;;;;4977364;28;92498;-74
2022/10/06 08:47:29;;;;;;;18.40;2.75;;;;;;;;;;4977226;28;94390;-75
2022/10/06 08:49:55;;;;;;;32.55;3.50;;;;;;;;;;4976872;28;93436;-75
2022/10/06 08:52:45;;;;;;;20.17;3.33;;;;;;;;;;4977244;28;92457;-75
2022/10/06 08:55:24;;;;;;;24.52;3.83;;;;;;;;;;4976934;28;93311;-74
2022/10/06 08:57:53;;;;;;;28.77;3.30;;;;;;;;;;4976963;28;93760;-74
2022/10/06 09:00:19;;;;;;;17.08;3.05;;;;;;;;;;4977529;28;91579;-74
2022/10/06 09:02:48;;;;;;;23.80;3.38;;;;;;;;;;4975265;28;92743;-74
2022/10/06 09:05:24;;;;;;;18.13;3.30;;;;;;;;;;4980671;28;94496;-75
2022/10/06 09:07:58;;;;;;;21.90;2.90;;;;;;;;;;4975325;28;94734;-74
2022/10/06 09:10:29;;;;;;;13.70;2.88;;;;;;;;;;4967756;28;93431;-74
2022/10/06 09:12:59;;;;;;;13.82;2.40;;;;;;;;;;4958454;28;92452;-74
2022/10/06 09:15:32;;;;;;;16.70;2.67;;;;;;;;;;4965092;28;94219;-75
2022/10/06 09:18:07;;;;;;;25.20;3.33;;;;;;;;;;4976526;28;93566;-75
2022/10/06 09:20:35;;;;;;;12.65;2.22;;;;;;;;;;4977333;28;92357;-75
2022/10/06 09:23:05;;;;;;;19.80;3.35;;;;;;;;;;4976238;28;93185;-73
2022/10/06 09:25:32;;;;;;;23.00;3.72;;;;;;;;;;4975746;28;91796;-75
2022/10/06 09:27:59;;;;;;;15.13;2.75;;;;;;;;;;4979990;28;92429;-75
2022/10/06 09:30:26;;;;;;;16.88;2.22;;;;;;;;;;4976178;28;93660;-75
2022/10/06 09:32:59;;;;;;;23.23;3.40;;;;;;;;;;4974806;28;94872;-74
2022/10/06 09:35:27;;;;;;;17.08;2.92;;;;;;;;;;4976531;28;96774;-75
2022/10/06 09:38:03;;;;;;;29.17;3.42;;;;;;;;;;4975867;28;93432;-75
2022/10/06 09:40:35;;;;;;;17.63;2.33;;;;;;;;;;4976436;28;92393;-75
2022/10/06 09:43:02;;;;;;;16.75;2.53;;;;;;;;;;4976235;28;93163;-75
2022/10/06 09:45:30;;;;;;;16.33;2.97;;;;;;;;;;4976551;28;94396;-75
2022/10/06 09:48:11;;;;;;;11.50;2.40;;;;;;;;;;4976108;28;92450;-75
2022/10/06 09:50:37;;;;;;;19.65;3.22;;;;;;;;;;4979333;28;92179;-73
2022/10/06 09:53:15;;;;;;;11.48;2.13;;;;;;;;;;4976016;28;92696;-76
2022/10/06 09:55:45;;;;;;;16.70;2.83;;;;;;;;;;4976007;28;92822;-75
2022/10/06 09:58:17;;;;;;;15.88;2.80;;;;;;;;;;4973791;28;95891;-75
2022/10/06 10:00:54;;;;;;;20.65;2.75;;;;;;;;;;4976030;28;92486;-74
2022/10/06 10:03:22;;;;;;;10.65;2.58;;;;;;;;;;4975421;28;93148;-75
2022/10/06 10:05:49;;;;;;;21.73;2.30;;;;;;;;;;4971928;28;94429;-74
2022/10/06 10:08:21;;;;;;;16.63;3.42;;;;;;;;;;4968646;28;92706;-75
2022/10/06 10:10:48;;;;;;;17.77;2.70;;;;;;;;;;4974518;28;93141;-73
2022/10/06 10:13:24;;;;;;;11.65;2.70;;;;;;;;;;4978572;28;93450;-75
2022/10/06 10:15:53;;;;;;;14.65;2.95;;;;;;;;;;4975474;28;93141;-74
2022/10/06 10:18:25;;;;;;;12.93;2.17;;;;;;;;;;4982288;28;94304;-74
2022/10/06 10:20:54;;;;;;;18.88;2.38;;;;;;;;;;4987722;28;94043;-72
2022/10/06 10:23:28;;;;;;;15.70;2.80;;;;;;;;;;4954416;28;94773;-74
2022/10/06 10:26:12;;;;;;;13.38;1.92;;;;;;;;;;4955727;28;93424;-74
2022/10/06 10:28:49;;;;;;;8.75;2.20;;;;;;;;;;4955916;28;92636;-74
2022/10/06 10:31:29;;;;;;;15.50;2.10;;;;;;;;;;4972598;28;92994;-74
2022/10/06 10:34:09;;;;;;;8.85;2.47;;;;;;;;;;4995310;28;94465;-75
2022/10/06 10:36:59;;;;;;;12.85;2.58;;;;;;;;;;4993113;28;92615;-73
2022/10/06 10:39:28;;;;;;;8.70;2.28;;;;;;;;;;4955648;28;93264;-75
2022/10/06 10:41:55;;;;;;;12.88;2.03;;;;;;;;;;4970037;28;91759;-74
2022/10/06 10:44:33;;;;;;;12.55;1.95;;;;;;;;;;4975116;28;92430;-73
2022/10/06 10:47:06;;;;;;;11.10;2.10;;;;;;;;;;4979446;28;93392;-74
2022/10/06 10:49:33;;;;;;;9.90;1.42;;;;;;;;;;4987444;28;94873;-74
2022/10/06 10:52:08;;;;;;;7.72;1.77;;;;;;;;;;4993149;28;96563;-75
2022/10/06 10:54:53;;;;;;;10.38;2.50;;;;;;;;;;4994948;28;93507;-75
2022/10/06 10:57:21;;;;;;;10.20;2.20;;;;;;;;;;4982727;28;92851;-74
2022/10/06 10:59:56;;;;;;;12.93;2.05;;;;;;;;;;4975363;28;94410;-74
2022/10/06 11:02:22;;;;;;;13.35;2.28;;;;;;;;;;4984043;28;92412;-74
2022/10/06 11:04:51;;;;;;;9.88;2.08;;;;;;;;;;4995155;28;93096;-74
2022/10/06 11:07:40;;;;;;;17.40;2.72;;;;;;;;;;4986766;28;92759;-74
2022/10/06 11:10:18;;;;;;;12.65;1.98;;;;;;;;;;4974123;28;92343;-75
2022/10/06 11:12:48;;;;;;;9.57;1.85;;;;;;;;;;4964506;28;93179;-73
2022/10/06 11:15:17;;;;;;;7.93;2.27;;;;;;;;;;4957789;28;95799;-74
2022/10/06 11:17:45;;;;;;;14.52;2.28;;;;;;;;;;4972431;28;92547;-74
2022/10/06 11:20:23;;;;;;;13.63;2.22;;;;;;;;;;4977871;28;92752;-75
2022/10/06 11:23:08;;;;;;;11.70;1.85;;;;;;;;;;4991627;28;92385;-75
2022/10/06 11:25:37;;;;;;;14.63;2.30;;;;;;;;;;4991384;28;93622;-74
2022/10/06 11:28:10;;;;;;;16.05;2.42;;;;;;;;;;4973849;28;92432;-75
2022/10/06 11:30:43;;;;;;;12.40;2.67;;;;;;;;;;4990608;28;92711;-75
2022/10/06 11:33:35;;;;;;;13.63;2.13;;;;;;;;;;4994896;28;93764;-76
2022/10/06 11:36:02;;;;;;;12.77;2.58;;;;;;;;;;4986166;28;93447;-75
2022/10/06 11:38:29;;;;;;;17.73;2.63;;;;;;;;;;4971421;28;93242;-74
2022/10/06 11:41:01;;;;;;;13.02;2.45;;;;;;;;;;4974282;28;94815;-74
2022/10/06 11:43:40;;;;;;;11.75;2.40;;;;;;;;;;4977626;28;93461;-74
2022/10/06 11:46:12;;;;;;;12.57;2.45;;;;;;;;;;4967727;28;93511;-74
2022/10/06 11:48:39;;;;;;;15.75;2.83;;;;;;;;;;4963353;28;93532;-74
2022/10/06 11:51:23;;;;;;;12.02;1.90;;;;;;;;;;4992037;28;92455;-74
2022/10/06 11:53:54;;;;;;;11.40;2.30;;;;;;;;;;4992954;28;93167;-75
2022/10/06 11:56:20;;;;;;;8.88;1.83;;;;;;;;;;4980175;28;94458;-73
2022/10/06 11:58:50;;;;;;;11.82;1.90;;;;;;;;;;4993778;28;91886;-74
2022/10/06 12:01:32;;;;;;;8.13;1.57;;;;;;;;;;4975583;28;92738;-73
2022/10/06 12:04:07;;;;;;;16.70;2.63;;;;;;;;;;4969816;28;93435;-73
2022/10/06 12:06:43;;;;;;;7.50;1.65;;;;;;;;;;4978211;28;95004;-73
2022/10/06 12:09:25;;;;;;;10.63;1.75;;;;;;;;;;4977785;28;93354;-74
2022/10/06 12:11:55;;;;;;;8.82;2.05;;;;;;;;;;4997455;28;92441;-74
2022/10/06 12:14:21;;;;;;;12.00;1.90;;;;;;;;;;4995312;28;93109;-75
2022/10/06 12:17:15;;;;;;;8.10;1.77;;;;;;;;;;4987279;28;94328;-75
2022/10/06 12:19:54;;;;;;;8.63;1.92;;;;;;;;;;4994300;28;93285;-73
2022/10/06 12:22:25;;;;;;;10.63;2.45;;;;;;;;;;4997492;28;94299;-73
2022/10/06 12:25:01;;;;;;;7.13;1.85;;;;;;;;;;4973383;28;94030;-74
2022/10/06 12:27:28;;;;;;;7.72;2.00;;;;;;;;;;4974903;28;92454;-75
2022/10/06 12:30:02;;;;;;;8.00;1.80;;;;;;;;;;4972544;28;92616;-72
2022/10/06 12:32:29;;;;;;;13.10;1.70;;;;;;;;;;4970908;28;94938;-74
2022/10/06 12:34:55;;;;;;;11.35;2.28;;;;;;;;;;4976144;28;98306;-74
2022/10/06 12:37:27;;;;;;;8.82;1.80;;;;;;;;;;4975928;28;93459;-75
2022/10/06 12:40:12;;;;;;;9.25;2.05;;;;;;;;;;4984504;28;93805;-75
2022/10/06 12:42:39;;;;;;;7.10;1.63;;;;;;;;;;4984843;28;92372;-76
2022/10/06 12:45:23;;;;;;;13.77;2.45;;;;;;;;;;4981046;28;93439;-76
2022/10/06 12:47:49;;;;;;;7.68;1.70;;;;;;;;;;4976942;28;92610;-74
2022/10/06 12:50:19;;;;;;;14.27;2.28;;;;;;;;;;4977362;28;94405;-73
2022/10/06 12:52:49;;;;;;;6.50;2.10;;;;;;;;;;4976454;28;92579;-73
2022/10/06 12:55:27;;;;;;;7.22;2.20;;;;;;;;;;4969315;28;93138;-73
2022/10/06 12:57:53;;;;;;;9.50;2.00;;;;;;;;;;4967522;28;95768;-77
2022/10/06 13:00:23;;;;;;;14.40;1.88;;;;;;;;;;4976366;28;92528;-73
2022/10/06 13:02:53;;;;;;;5.30;1.50;;;;;;;;;;4979888;28;93675;-74
2022/10/06 13:05:19;;;;;;;8.45;1.75;;;;;;;;;;4976248;28;92489;-74
2022/10/06 13:07:56;;;;;;;6.47;1.70;;;;;;;;;;4975698;28;92572;-74
2022/10/06 13:10:22;;;;;;;9.98;2.10;;;;;;;;;;4976895;28;93486;-76
2022/10/06 13:12:51;;;;;;;14.63;1.85;;;;;;;;;;4974445;28;94552;-75
2022/10/06 13:15:32;;;;;;;11.30;1.90;;;;;;;;;;4963039;28;93185;-75
2022/10/06 13:18:11;;;;;;;10.27;1.67;;;;;;;;;;4986631;28;95011;-75
2022/10/06 13:20:40;;;;;;;10.48;1.48;;;;;;;;;;4976350;28;92794;-75
2022/10/06 13:23:26;;;;;;;9.93;1.95;;;;;;;;;;4988425;28;94912;-74
2022/10/06 13:25:54;;;;;;;7.57;1.95;;;;;;;;;;4956804;28;94494;-75
2022/10/06 13:28:22;;;;;;;6.70;2.22;;;;;;;;;;4955787;28;92433;-75
2022/10/06 13:30:49;;;;;;;11.55;2.30;;;;;;;;;;4972408;28;93183;-75
2022/10/06 13:33:15;;;;;;;11.18;1.80;;;;;;;;;;4976123;28;93593;-75
2022/10/06 13:35:41;;;;;;;7.85;1.92;;;;;;;;;;4999034;28;92505;-75
2022/10/06 13:38:08;;;;;;;6.57;1.60;;;;;;;;;;4996046;28;93275;-74
2022/10/06 13:40:35;;;;;;;7.72;1.95;;;;;;;;;;4993402;28;91755;-74
2022/10/06 13:43:14;;;;;;;8.52;2.15;;;;;;;;;;4990577;28;93519;-74
2022/10/06 13:45:43;;;;;;;7.47;1.70;;;;;;;;;;4974063;28;93288;-74
2022/10/06 13:48:14;;;;;;;9.07;1.63;;;;;;;;;;4993307;28;95130;-73
2022/10/06 13:50:45;;;;;;;7.82;1.60;;;;;;;;;;4981698;28;95507;-74
2022/10/06 13:53:12;;;;;;;;;;;;;;;;;;4973040;28;93612;-74
2022/10/06 13:55:38;;;;;;;6.60;1.20;;;;;;;;;;4976716;28;118868;-74
2022/10/06 13:58:06;;;;;;;15.82;1.95;;;;;;;;;;4978755;28;94137;-74
2022/10/06 14:00:49;;;;;;;11.38;1.83;;;;;;;;;;4988615;28;92417;-74
2022/10/06 14:03:23;;;;;;;13.93;1.98;;;;;;;;;;4956121;28;93327;-75
2022/10/06 14:05:51;;;;;;;13.50;2.20;;;;;;;;;;4975695;28;92721;-75
2022/10/06 14:08:25;;;;;;;9.73;2.10;;;;;;;;;;4975920;28;92439;-75
2022/10/06 14:11:11;;;;;;;11.00;2.28;;;;;;;;;;4975294;28;94121;-73
2022/10/06 14:13:38;;;;;;;7.93;1.80;;;;;;;;;;4975935;28;96310;-74
2022/10/06 14:16:05;;;;;;;9.23;1.80;;;;;;;;;;4980621;28;92528;-75
2022/10/06 14:18:48;;;;;;;7.80;1.80;;;;;;;;;;4995936;28;94074;-74
2022/10/06 14:21:30;;;;;;;8.82;2.05;;;;;;;;;;4993848;28;94419;-75
2022/10/06 14:23:58;;;;;;;10.93;2.08;;;;;;;;;;4977054;28;93142;-74
2022/10/06 14:26:25;;;;;;;9.18;1.80;;;;;;;;;;4990342;28;94742;-74
2022/10/06 14:28:52;;;;;;;10.07;1.70;;;;;;;;;;4975545;28;92540;-75
2022/10/06 14:31:19;;;;;;;10.65;1.75;;;;;;;;;;4974792;28;93506;-75
2022/10/06 14:33:46;;;;;;;11.80;2.03;;;;;;;;;;4975709;28;93950;-76
2022/10/06 14:36:19;;;;;;;13.38;2.10;;;;;;;;;;4981156;28;92754;-75
2022/10/06 14:38:46;;;;;;;4.55;1.17;;;;;;;;;;4994051;28;94776;-74
2022/10/06 14:41:12;;;;;;;8.02;1.63;;;;;;;;;;4977121;28;93961;-70
2022/10/06 14:43:46;;;;;;;9.10;2.17;;;;;;;;;;4978897;28;92779;-70
2022/10/06 14:46:13;;;;;;;7.63;1.60;;;;;;;;;;4974279;28;93456;-70
2022/10/06 14:48:39;;;;;;;13.43;1.70;;;;;;;;;;4975685;28;92439;-70
2022/10/06 14:51:08;;;;;;;8.80;1.50;;;;;;;;;;4974710;28;92702;-71
2022/10/06 14:53:35;;;;;;;9.93;1.70;;;;;;;;;;4974976;28;93853;-70
2022/10/06 14:56:03;;;;;;;5.68;1.30;;;;;;;;;;4974942;28;91962;-71
2022/10/06 14:58:29;;;;;;;8.43;1.63;;;;;;;;;;4975385;28;92394;-70